sensor_id;sensor_type;location;lat;lon;timestamp;pressure;altitude;pressure_sealevel;temperature;humidity
17785;BME280;9016;53.582;10.062;2023-12-29T00:00:42;100283.78;;;12.08;72.13
17785;BME280;9016;53.582;10.062;2023-12-29T00:03:10;100294.03;;;12.02;74.01
17785;BME280;9016;53.582;10.062;2023-12-29T00:05:38;100300.16;;;11.91;76.05
17785;BME280;9016;53.582;10.062;2023-12-29T00:08:06;100291.66;;;11.73;78.50
17785;BME280;9016;53.582;10.062;2023-12-29T00:10:35;100277.47;;;11.73;79.94
17785;BME280;9016;53.582;10.062;2023-12-29T00:13:04;100256.13;;;11.48;81.91
17785;BME280;9016;53.582;10.062;2023-12-29T00:15:32;100252.59;;;11.47;83.29
17785;BME280;9016;53.582;10.062;2023-12-29T00:18:00;100256.25;;;11.46;83.51
17785;BME280;9016;53.582;10.062;2023-12-29T00:20:28;100262.75;;;11.42;83.79
17785;BME280;9016;53.582;10.062;2023-12-29T00:23:07;100255.53;;;11.32;85.67
17785;BME280;9016;53.582;10.062;2023-12-29T00:25:37;100246.66;;;11.31;85.85
17785;BME280;9016;53.582;10.062;2023-12-29T00:28:05;100246.03;;;11.28;85.90
17785;BME280;9016;53.582;10.062;2023-12-29T00:30:33;100232.69;;;11.28;86.42
17785;BME280;9016;53.582;10.062;2023-12-29T00:33:21;100239.19;;;11.36;86.69
17785;BME280;9016;53.582;10.062;2023-12-29T00:35:49;100232.91;;;11.37;86.19
17785;BME280;9016;53.582;10.062;2023-12-29T00:38:17;100230.88;;;11.41;86.17
17785;BME280;9016;53.582;10.062;2023-12-29T00:40:46;100230.88;;;11.41;86.64
17785;BME280;9016;53.582;10.062;2023-12-29T00:43:14;100225.66;;;11.39;86.81
17785;BME280;9016;53.582;10.062;2023-12-29T00:45:44;100211.38;;;11.28;86.29
17785;BME280;9016;53.582;10.062;2023-12-29T00:48:12;100215.28;;;11.35;86.41
17785;BME280;9016;53.582;10.062;2023-12-29T00:50:41;100213.25;;;11.38;85.69
17785;BME280;9016;53.582;10.062;2023-12-29T00:53:08;100200.53;;;11.54;85.37
17785;BME280;9016;53.582;10.062;2023-12-29T00:55:37;100196.91;;;11.55;85.15
17785;BME280;9016;53.582;10.062;2023-12-29T00:58:06;100195.41;;;11.51;84.87
17785;BME280;9016;53.582;10.062;2023-12-29T01:00:34;100208.13;;;11.48;83.93
17785;BME280;9016;53.582;10.062;2023-12-29T01:03:02;100203.63;;;11.48;82.85
17785;BME280;9016;53.582;10.062;2023-12-29T01:05:30;100187.63;;;11.48;83.40
17785;BME280;9016;53.582;10.062;2023-12-29T01:07:58;100186.66;;;11.49;83.02
17785;BME280;9016;53.582;10.062;2023-12-29T01:10:27;100185.34;;;11.55;82.54
17785;BME280;9016;53.582;10.062;2023-12-29T01:12:55;100197.13;;;11.65;81.43
17785;BME280;9016;53.582;10.062;2023-12-29T01:15:24;100189.78;;;11.79;80.89
17785;BME280;9016;53.582;10.062;2023-12-29T01:17:52;100186.50;;;11.76;80.61
17785;BME280;9016;53.582;10.062;2023-12-29T01:20:21;100185.75;;;11.74;81.50
17785;BME280;9016;53.582;10.062;2023-12-29T01:22:48;100187.56;;;11.73;81.46
17785;BME280;9016;53.582;10.062;2023-12-29T01:25:17;100188.66;;;11.71;82.62
17785;BME280;9016;53.582;10.062;2023-12-29T01:27:45;100187.59;;;11.61;83.47
17785;BME280;9016;53.582;10.062;2023-12-29T01:30:13;100193.59;;;11.52;84.46
17785;BME280;9016;53.582;10.062;2023-12-29T01:32:43;100191.84;;;11.40;86.14
17785;BME280;9016;53.582;10.062;2023-12-29T01:35:11;100192.38;;;11.32;86.69
17785;BME280;9016;53.582;10.062;2023-12-29T01:37:42;100198.97;;;11.39;87.02
17785;BME280;9016;53.582;10.062;2023-12-29T01:40:11;100204.03;;;11.19;88.18
17785;BME280;9016;53.582;10.062;2023-12-29T01:42:40;100200.47;;;11.31;88.08
17785;BME280;9016;53.582;10.062;2023-12-29T01:45:20;100188.41;;;11.25;87.92
17785;BME280;9016;53.582;10.062;2023-12-29T01:47:50;100190.91;;;11.28;87.55
17785;BME280;9016;53.582;10.062;2023-12-29T01:50:20;100175.72;;;11.41;86.81
17785;BME280;9016;53.582;10.062;2023-12-29T01:52:49;100172.06;;;11.42;85.83
17785;BME280;9016;53.582;10.062;2023-12-29T01:55:20;100169.00;;;11.36;85.00
17785;BME280;9016;53.582;10.062;2023-12-29T01:57:49;100178.31;;;11.30;84.56
17785;BME280;9016;53.582;10.062;2023-12-29T02:00:21;100160.34;;;11.45;83.91
17785;BME280;9016;53.582;10.062;2023-12-29T02:02:51;100173.75;;;11.56;83.30
17785;BME280;9016;53.582;10.062;2023-12-29T02:05:21;100156.75;;;11.57;83.85
17785;BME280;9016;53.582;10.062;2023-12-29T02:07:51;100157.16;;;11.63;84.56
17785;BME280;9016;53.582;10.062;2023-12-29T02:10:20;100150.03;;;11.51;83.88
17785;BME280;9016;53.582;10.062;2023-12-29T02:12:48;100151.03;;;11.50;83.94
17785;BME280;9016;53.582;10.062;2023-12-29T02:15:16;100144.53;;;11.42;84.24
17785;BME280;9016;53.582;10.062;2023-12-29T02:17:46;100148.28;;;11.39;84.04
17785;BME280;9016;53.582;10.062;2023-12-29T02:20:17;100151.03;;;11.50;83.38
17785;BME280;9016;53.582;10.062;2023-12-29T02:22:45;100148.16;;;11.41;83.63
17785;BME280;9016;53.582;10.062;2023-12-29T02:25:15;100141.78;;;11.43;83.64
17785;BME280;9016;53.582;10.062;2023-12-29T02:27:49;100142.66;;;11.55;83.81
17785;BME280;9016;53.582;10.062;2023-12-29T02:30:22;100137.63;;;11.63;82.85
17785;BME280;9016;53.582;10.062;2023-12-29T02:32:55;100151.63;;;11.66;82.32
17785;BME280;9016;53.582;10.062;2023-12-29T02:35:28;100127.19;;;11.60;83.02
17785;BME280;9016;53.582;10.062;2023-12-29T02:37:56;100115.25;;;11.65;82.81
17785;BME280;9016;53.582;10.062;2023-12-29T02:40:26;100105.94;;;11.58;82.63
17785;BME280;9016;53.582;10.062;2023-12-29T02:42:55;100108.22;;;11.52;82.80
17785;BME280;9016;53.582;10.062;2023-12-29T02:45:23;100114.00;;;11.46;82.94
17785;BME280;9016;53.582;10.062;2023-12-29T02:47:51;100104.56;;;11.53;82.80
17785;BME280;9016;53.582;10.062;2023-12-29T02:50:19;100098.59;;;11.62;82.92
17785;BME280;9016;53.582;10.062;2023-12-29T02:52:47;100095.78;;;11.63;82.18
17785;BME280;9016;53.582;10.062;2023-12-29T02:55:15;100100.41;;;11.61;81.82
17785;BME280;9016;53.582;10.062;2023-12-29T02:57:45;100088.19;;;11.70;81.20
17785;BME280;9016;53.582;10.062;2023-12-29T03:00:13;100081.47;;;11.64;80.96
17785;BME280;9016;53.582;10.062;2023-12-29T03:02:41;100084.91;;;11.66;81.24
17785;BME280;9016;53.582;10.062;2023-12-29T03:05:10;100076.91;;;11.66;80.91
17785;BME280;9016;53.582;10.062;2023-12-29T03:07:38;100065.38;;;11.66;81.37
17785;BME280;9016;53.582;10.062;2023-12-29T03:10:08;100079.84;;;11.51;81.45
17785;BME280;9016;53.582;10.062;2023-12-29T03:12:36;100067.75;;;11.58;80.99
17785;BME280;9016;53.582;10.062;2023-12-29T03:15:06;100082.16;;;11.55;80.66
17785;BME280;9016;53.582;10.062;2023-12-29T03:17:35;100068.50;;;11.60;80.56
17785;BME280;9016;53.582;10.062;2023-12-29T03:20:05;100064.72;;;11.62;80.36
17785;BME280;9016;53.582;10.062;2023-12-29T03:22:34;100070.91;;;11.63;81.69
17785;BME280;9016;53.582;10.062;2023-12-29T03:25:02;100050.84;;;11.46;82.91
17785;BME280;9016;53.582;10.062;2023-12-29T03:27:30;100053.06;;;11.29;83.54
17785;BME280;9016;53.582;10.062;2023-12-29T03:29:58;100056.69;;;11.28;83.86
17785;BME280;9016;53.582;10.062;2023-12-29T03:32:28;100066.09;;;11.21;83.90
17785;BME280;9016;53.582;10.062;2023-12-29T03:34:56;100062.25;;;11.25;83.75
17785;BME280;9016;53.582;10.062;2023-12-29T03:37:24;100060.78;;;11.21;83.06
17785;BME280;9016;53.582;10.062;2023-12-29T03:39:52;100065.38;;;11.19;83.41
17785;BME280;9016;53.582;10.062;2023-12-29T03:42:21;100057.44;;;11.30;83.24
17785;BME280;9016;53.582;10.062;2023-12-29T03:44:49;100057.03;;;11.23;83.35
17785;BME280;9016;53.582;10.062;2023-12-29T03:47:17;100047.81;;;11.27;83.17
17785;BME280;9016;53.582;10.062;2023-12-29T03:49:46;100054.94;;;11.16;83.70
17785;BME280;9016;53.582;10.062;2023-12-29T03:52:14;100050.34;;;11.18;84.81
17785;BME280;9016;53.582;10.062;2023-12-29T03:54:42;100055.38;;;11.33;84.27
17785;BME280;9016;53.582;10.062;2023-12-29T03:57:10;100049.25;;;11.44;83.84
17785;BME280;9016;53.582;10.062;2023-12-29T03:59:39;100053.31;;;11.60;83.26
17785;BME280;9016;53.582;10.062;2023-12-29T04:02:07;100051.53;;;11.37;83.93
17785;BME280;9016;53.582;10.062;2023-12-29T04:04:37;100070.31;;;11.36;84.97
17785;BME280;9016;53.582;10.062;2023-12-29T04:07:06;100082.34;;;11.41;85.57
17785;BME280;9016;53.582;10.062;2023-12-29T04:09:34;100076.34;;;11.27;86.45
17785;BME280;9016;53.582;10.062;2023-12-29T04:12:03;100100.53;;;11.24;87.73
17785;BME280;9016;53.582;10.062;2023-12-29T04:14:31;100102.63;;;11.08;89.82
17785;BME280;9016;53.582;10.062;2023-12-29T04:16:59;100134.94;;;11.03;89.48
17785;BME280;9016;53.582;10.062;2023-12-29T04:19:29;100147.75;;;10.98;89.74
17785;BME280;9016;53.582;10.062;2023-12-29T04:21:57;100161.53;;;10.79;89.27
17785;BME280;9016;53.582;10.062;2023-12-29T04:24:27;100169.75;;;10.51;85.75
17785;BME280;9016;53.582;10.062;2023-12-29T04:26:55;100209.25;;;10.32;84.92
17785;BME280;9016;53.582;10.062;2023-12-29T04:29:23;100198.47;;;10.07;84.40
17785;BME280;9016;53.582;10.062;2023-12-29T04:31:51;100171.84;;;10.07;85.54
17785;BME280;9016;53.582;10.062;2023-12-29T04:34:19;100136.59;;;9.91;82.61
17785;BME280;9016;53.582;10.062;2023-12-29T04:36:47;100123.88;;;9.69;82.89
17785;BME280;9016;53.582;10.062;2023-12-29T04:39:15;100094.28;;;9.74;83.40
17785;BME280;9016;53.582;10.062;2023-12-29T04:41:44;100076.63;;;9.60;82.83
17785;BME280;9016;53.582;10.062;2023-12-29T04:44:12;100084.56;;;9.48;82.79
17785;BME280;9016;53.582;10.062;2023-12-29T04:46:40;100097.63;;;9.51;82.54
17785;BME280;9016;53.582;10.062;2023-12-29T04:49:09;100106.59;;;9.50;81.82
17785;BME280;9016;53.582;10.062;2023-12-29T04:51:37;100113.66;;;9.37;81.68
17785;BME280;9016;53.582;10.062;2023-12-29T04:54:06;100096.47;;;9.28;83.31
17785;BME280;9016;53.582;10.062;2023-12-29T04:56:34;100126.88;;;9.24;84.15
17785;BME280;9016;53.582;10.062;2023-12-29T04:59:03;100112.69;;;9.11;85.68
17785;BME280;9016;53.582;10.062;2023-12-29T05:01:31;100106.94;;;8.90;86.94
17785;BME280;9016;53.582;10.062;2023-12-29T05:03:59;100080.53;;;8.87;88.06
17785;BME280;9016;53.582;10.062;2023-12-29T05:06:27;100093.22;;;8.96;88.31
17785;BME280;9016;53.582;10.062;2023-12-29T05:08:55;100100.22;;;9.12;88.49
17785;BME280;9016;53.582;10.062;2023-12-29T05:11:24;100090.56;;;9.11;87.77
17785;BME280;9016;53.582;10.062;2023-12-29T05:13:52;100091.00;;;9.17;87.96
17785;BME280;9016;53.582;10.062;2023-12-29T05:16:21;100087.53;;;9.17;88.17
17785;BME280;9016;53.582;10.062;2023-12-29T05:18:49;100084.59;;;9.34;87.23
17785;BME280;9016;53.582;10.062;2023-12-29T05:21:18;100081.50;;;9.27;87.92
17785;BME280;9016;53.582;10.062;2023-12-29T05:23:47;100095.38;;;9.45;87.12
17785;BME280;9016;53.582;10.062;2023-12-29T05:26:15;100095.28;;;9.46;86.87
17785;BME280;9016;53.582;10.062;2023-12-29T05:28:43;100088.66;;;9.39;87.54
17785;BME280;9016;53.582;10.062;2023-12-29T05:31:11;100082.50;;;9.39;87.75
17785;BME280;9016;53.582;10.062;2023-12-29T05:33:41;100092.47;;;9.35;88.02
17785;BME280;9016;53.582;10.062;2023-12-29T05:36:10;100100.03;;;9.41;87.64
17785;BME280;9016;53.582;10.062;2023-12-29T05:38:38;100089.47;;;9.27;87.34
17785;BME280;9016;53.582;10.062;2023-12-29T05:41:07;100098.47;;;9.25;88.70
17785;BME280;9016;53.582;10.062;2023-12-29T05:43:35;100096.19;;;9.33;89.22
17785;BME280;9016;53.582;10.062;2023-12-29T05:46:09;100092.13;;;9.27;88.58
17785;BME280;9016;53.582;10.062;2023-12-29T05:48:37;100086.66;;;9.43;88.33
17785;BME280;9016;53.582;10.062;2023-12-29T05:51:08;100099.53;;;9.49;88.94
17785;BME280;9016;53.582;10.062;2023-12-29T05:53:36;100095.75;;;9.53;88.43
17785;BME280;9016;53.582;10.062;2023-12-29T05:56:05;100097.78;;;9.62;88.01
17785;BME280;9016;53.582;10.062;2023-12-29T05:58:33;100091.91;;;9.57;88.25
17785;BME280;9016;53.582;10.062;2023-12-29T06:01:01;100109.31;;;9.48;88.53
17785;BME280;9016;53.582;10.062;2023-12-29T06:03:29;100106.59;;;9.50;89.25
17785;BME280;9016;53.582;10.062;2023-12-29T06:05:58;100108.31;;;9.63;89.53
17785;BME280;9016;53.582;10.062;2023-12-29T06:08:27;100116.25;;;9.77;88.88
17785;BME280;9016;53.582;10.062;2023-12-29T06:10:55;100110.06;;;9.77;89.52
17785;BME280;9016;53.582;10.062;2023-12-29T06:13:23;100095.16;;;9.74;89.95
17785;BME280;9016;53.582;10.062;2023-12-29T06:15:51;100111.13;;;9.87;90.83
17785;BME280;9016;53.582;10.062;2023-12-29T06:18:19;100112.56;;;10.05;90.51
17785;BME280;9016;53.582;10.062;2023-12-29T06:20:47;100113.09;;;9.97;89.70
17785;BME280;9016;53.582;10.062;2023-12-29T06:23:16;100134.59;;;10.07;89.59
17785;BME280;9016;53.582;10.062;2023-12-29T06:25:46;100132.91;;;10.06;88.90
17785;BME280;9016;53.582;10.062;2023-12-29T06:28:14;100118.63;;;10.07;89.03
17785;BME280;9016;53.582;10.062;2023-12-29T06:30:42;100128.63;;;10.03;89.21
17785;BME280;9016;53.582;10.062;2023-12-29T06:33:10;100126.28;;;9.86;89.33
17785;BME280;9016;53.582;10.062;2023-12-29T06:35:38;100124.44;;;9.87;90.30
17785;BME280;9016;53.582;10.062;2023-12-29T06:38:06;100117.53;;;9.84;90.79
17785;BME280;9016;53.582;10.062;2023-12-29T06:40:34;100117.72;;;9.81;90.72
17785;BME280;9016;53.582;10.062;2023-12-29T06:43:04;100115.28;;;9.78;90.84
17785;BME280;9016;53.582;10.062;2023-12-29T06:45:32;100135.06;;;9.74;91.79
17785;BME280;9016;53.582;10.062;2023-12-29T06:48:00;100136.91;;;9.86;91.98
17785;BME280;9016;53.582;10.062;2023-12-29T06:50:29;100135.00;;;9.88;92.17
17785;BME280;9016;53.582;10.062;2023-12-29T06:52:57;100134.31;;;9.85;92.34
17785;BME280;9016;53.582;10.062;2023-12-29T06:55:25;100135.31;;;9.96;92.10
17785;BME280;9016;53.582;10.062;2023-12-29T06:57:53;100134.38;;;9.97;91.41
17785;BME280;9016;53.582;10.062;2023-12-29T07:00:23;100133.13;;;10.03;91.45
17785;BME280;9016;53.582;10.062;2023-12-29T07:02:51;100146.44;;;10.03;90.76
17785;BME280;9016;53.582;10.062;2023-12-29T07:05:19;100129.25;;;10.21;90.38
17785;BME280;9016;53.582;10.062;2023-12-29T07:07:47;100131.03;;;10.21;90.05
17785;BME280;9016;53.582;10.062;2023-12-29T07:10:15;100130.75;;;10.25;88.65
17785;BME280;9016;53.582;10.062;2023-12-29T07:12:43;100134.44;;;10.23;88.20
17785;BME280;9016;53.582;10.062;2023-12-29T07:15:11;100132.13;;;10.31;87.77
17785;BME280;9016;53.582;10.062;2023-12-29T07:17:42;100116.16;;;10.43;87.11
17785;BME280;9016;53.582;10.062;2023-12-29T07:20:10;100132.13;;;10.43;86.93
17785;BME280;9016;53.582;10.062;2023-12-29T07:22:39;100125.63;;;10.47;86.37
17785;BME280;9016;53.582;10.062;2023-12-29T07:25:07;100124.34;;;10.53;85.94
17785;BME280;9016;53.582;10.062;2023-12-29T07:27:35;100123.09;;;10.46;84.81
17785;BME280;9016;53.582;10.062;2023-12-29T07:30:04;100122.00;;;10.61;85.27
17785;BME280;9016;53.582;10.062;2023-12-29T07:32:32;100127.66;;;10.56;84.17
17785;BME280;9016;53.582;10.062;2023-12-29T07:35:01;100119.44;;;10.59;84.68
17785;BME280;9016;53.582;10.062;2023-12-29T07:37:29;100112.28;;;10.72;83.83
17785;BME280;9016;53.582;10.062;2023-12-29T07:39:57;100115.59;;;10.76;83.42
17785;BME280;9016;53.582;10.062;2023-12-29T07:42:26;100115.47;;;10.77;82.59
17785;BME280;9016;53.582;10.062;2023-12-29T07:44:53;100120.50;;;10.82;82.33
17785;BME280;9016;53.582;10.062;2023-12-29T07:47:23;100119.09;;;10.89;82.60
17785;BME280;9016;53.582;10.062;2023-12-29T07:49:51;100116.19;;;10.92;81.77
17785;BME280;9016;53.582;10.062;2023-12-29T07:52:20;100113.97;;;10.86;81.98
17785;BME280;9016;53.582;10.062;2023-12-29T07:54:49;100125.28;;;10.89;82.25
17785;BME280;9016;53.582;10.062;2023-12-29T07:57:17;100133.03;;;10.92;81.74
17785;BME280;9016;53.582;10.062;2023-12-29T07:59:44;100127.19;;;10.87;81.06
17785;BME280;9016;53.582;10.062;2023-12-29T08:02:12;100117.16;;;10.91;81.49
17785;BME280;9016;53.582;10.062;2023-12-29T08:04:41;100125.28;;;10.89;80.60
17785;BME280;9016;53.582;10.062;2023-12-29T08:07:09;100132.19;;;10.92;80.93
17785;BME280;9016;53.582;10.062;2023-12-29T08:09:39;100130.81;;;10.99;80.55
17785;BME280;9016;53.582;10.062;2023-12-29T08:12:07;100128.03;;;11.01;80.00
17785;BME280;9016;53.582;10.062;2023-12-29T08:14:35;100124.94;;;11.07;79.44
17785;BME280;9016;53.582;10.062;2023-12-29T08:17:03;100128.31;;;11.09;79.02
17785;BME280;9016;53.582;10.062;2023-12-29T08:19:31;100131.94;;;11.08;78.77
17785;BME280;9016;53.582;10.062;2023-12-29T08:21:59;100123.72;;;11.11;78.76
17785;BME280;9016;53.582;10.062;2023-12-29T08:24:27;100126.47;;;11.22;78.37
17785;BME280;9016;53.582;10.062;2023-12-29T08:26:56;100116.63;;;10.98;78.29
17785;BME280;9016;53.582;10.062;2023-12-29T08:29:24;100126.22;;;11.01;77.97
17785;BME280;9016;53.582;10.062;2023-12-29T08:31:52;100118.84;;;11.05;77.47
17785;BME280;9016;53.582;10.062;2023-12-29T08:34:20;100118.84;;;11.05;77.69
17785;BME280;9016;53.582;10.062;2023-12-29T08:36:50;100119.69;;;11.05;77.03
17785;BME280;9016;53.582;10.062;2023-12-29T08:39:18;100123.41;;;11.15;77.04
17785;BME280;9016;53.582;10.062;2023-12-29T08:41:46;100122.78;;;11.12;76.61
17785;BME280;9016;53.582;10.062;2023-12-29T08:44:17;100123.59;;;11.25;75.77
17785;BME280;9016;53.582;10.062;2023-12-29T08:46:45;100135.06;;;11.38;75.25
17785;BME280;9016;53.582;10.062;2023-12-29T08:49:13;100148.91;;;11.43;74.61
17785;BME280;9016;53.582;10.062;2023-12-29T08:51:41;100134.28;;;11.48;74.18
17785;BME280;9016;53.582;10.062;2023-12-29T08:54:09;100145.06;;;11.47;74.78
17785;BME280;9016;53.582;10.062;2023-12-29T08:56:37;100147.31;;;11.40;74.32
17785;BME280;9016;53.582;10.062;2023-12-29T08:59:05;100148.00;;;11.55;75.02
17785;BME280;9016;53.582;10.062;2023-12-29T09:01:35;100138.63;;;11.49;75.08
17785;BME280;9016;53.582;10.062;2023-12-29T09:04:03;100140.69;;;11.46;75.75
17785;BME280;9016;53.582;10.062;2023-12-29T09:06:31;100137.00;;;11.59;76.54
17785;BME280;9016;53.582;10.062;2023-12-29T09:08:59;100135.94;;;11.62;76.26
17785;BME280;9016;53.582;10.062;2023-12-29T09:11:27;100153.72;;;11.74;75.75
17785;BME280;9016;53.582;10.062;2023-12-29T09:13:55;100157.53;;;11.23;79.45
17785;BME280;9016;53.582;10.062;2023-12-29T09:16:23;100184.53;;;10.55;83.28
17785;BME280;9016;53.582;10.062;2023-12-29T09:18:52;100154.25;;;10.19;85.55
17785;BME280;9016;53.582;10.062;2023-12-29T09:21:20;100161.16;;;9.82;86.16
17785;BME280;9016;53.582;10.062;2023-12-29T09:23:48;100159.50;;;9.67;87.87
17785;BME280;9016;53.582;10.062;2023-12-29T09:26:17;100157.44;;;9.58;89.34
17785;BME280;9016;53.582;10.062;2023-12-29T09:28:45;100177.69;;;9.60;89.94
17785;BME280;9016;53.582;10.062;2023-12-29T09:31:13;100167.91;;;9.61;91.16
17785;BME280;9016;53.582;10.062;2023-12-29T09:33:41;100175.34;;;9.68;92.32
17785;BME280;9016;53.582;10.062;2023-12-29T09:36:11;100189.41;;;9.70;93.25
17785;BME280;9016;53.582;10.062;2023-12-29T09:38:39;100167.63;;;9.78;92.65
17785;BME280;9016;53.582;10.062;2023-12-29T09:41:11;100172.00;;;9.79;92.50
17785;BME280;9016;53.582;10.062;2023-12-29T09:43:41;100204.91;;;9.90;92.58
17785;BME280;9016;53.582;10.062;2023-12-29T09:46:12;100190.91;;;10.01;91.63
17785;BME280;9016;53.582;10.062;2023-12-29T09:48:45;100198.16;;;9.99;91.67
17785;BME280;9016;53.582;10.062;2023-12-29T09:51:15;100187.81;;;10.07;92.22
17785;BME280;9016;53.582;10.062;2023-12-29T09:53:49;100186.84;;;10.22;91.58
17785;BME280;9016;53.582;10.062;2023-12-29T09:56:19;100185.75;;;10.12;91.33
17785;BME280;9016;53.582;10.062;2023-12-29T09:58:47;100183.75;;;10.16;91.34
17785;BME280;9016;53.582;10.062;2023-12-29T10:01:17;100179.28;;;10.16;91.39
17785;BME280;9016;53.582;10.062;2023-12-29T10:03:47;100165.75;;;10.19;91.20
17785;BME280;9016;53.582;10.062;2023-12-29T10:06:20;100180.56;;;10.23;90.53
17785;BME280;9016;53.582;10.062;2023-12-29T10:08:49;100174.50;;;10.21;89.56
17785;BME280;9016;53.582;10.062;2023-12-29T10:11:18;100171.50;;;10.26;90.68
17785;BME280;9016;53.582;10.062;2023-12-29T10:13:49;100168.94;;;10.24;89.97
17785;BME280;9016;53.582;10.062;2023-12-29T10:16:24;100172.78;;;10.20;89.64
17785;BME280;9016;53.582;10.062;2023-12-29T10:19:01;100158.53;;;10.21;89.53
17785;BME280;9016;53.582;10.062;2023-12-29T10:21:41;100152.88;;;10.26;88.50
17785;BME280;9016;53.582;10.062;2023-12-29T10:24:16;100162.34;;;10.30;87.97
17785;BME280;9016;53.582;10.062;2023-12-29T10:26:45;100164.09;;;10.31;87.79
17785;BME280;9016;53.582;10.062;2023-12-29T10:29:13;100155.88;;;10.34;87.18
17785;BME280;9016;53.582;10.062;2023-12-29T10:31:44;100145.63;;;10.28;86.26
17785;BME280;9016;53.582;10.062;2023-12-29T10:34:19;100152.34;;;10.33;85.18
17785;BME280;9016;53.582;10.062;2023-12-29T10:36:49;100161.94;;;10.23;85.53
17785;BME280;9016;53.582;10.062;2023-12-29T10:39:18;100163.84;;;10.34;86.53
17785;BME280;9016;53.582;10.062;2023-12-29T10:41:46;100165.25;;;10.27;85.62
17785;BME280;9016;53.582;10.062;2023-12-29T10:44:14;100172.47;;;10.25;85.73
17785;BME280;9016;53.582;10.062;2023-12-29T10:46:42;100154.38;;;10.30;85.39
17785;BME280;9016;53.582;10.062;2023-12-29T10:49:11;100160.91;;;10.38;85.33
17785;BME280;9016;53.582;10.062;2023-12-29T10:51:40;100166.22;;;10.38;85.00
17785;BME280;9016;53.582;10.062;2023-12-29T10:54:19;100171.09;;;10.44;84.30
17785;BME280;9016;53.582;10.062;2023-12-29T10:57:00;100172.94;;;10.56;83.79
17785;BME280;9016;53.582;10.062;2023-12-29T10:59:29;100163.97;;;10.57;84.67
17785;BME280;9016;53.582;10.062;2023-12-29T11:02:00;100174.22;;;10.63;83.58
17785;BME280;9016;53.582;10.062;2023-12-29T11:04:32;100167.91;;;10.52;83.64
17785;BME280;9016;53.582;10.062;2023-12-29T11:07:01;100166.22;;;10.51;83.55
17785;BME280;9016;53.582;10.062;2023-12-29T11:09:31;100155.13;;;10.44;83.18
17785;BME280;9016;53.582;10.062;2023-12-29T11:12:01;100150.47;;;10.60;83.73
17785;BME280;9016;53.582;10.062;2023-12-29T11:14:30;100141.47;;;10.74;84.07
17785;BME280;9016;53.582;10.062;2023-12-29T11:17:00;100144.69;;;10.66;83.42
17785;BME280;9016;53.582;10.062;2023-12-29T11:19:28;100145.97;;;10.73;84.19
17785;BME280;9016;53.582;10.062;2023-12-29T11:21:56;100133.72;;;10.71;83.81
17785;BME280;9016;53.582;10.062;2023-12-29T11:24:24;100133.59;;;10.72;84.46
17785;BME280;9016;53.582;10.062;2023-12-29T11:27:06;100148.50;;;10.87;83.75
17785;BME280;9016;53.582;10.062;2023-12-29T11:29:35;100152.47;;;10.82;82.80
17785;BME280;9016;53.582;10.062;2023-12-29T11:32:04;100142.75;;;10.81;83.73
17785;BME280;9016;53.582;10.062;2023-12-29T11:34:39;100150.22;;;10.88;83.95
17785;BME280;9016;53.582;10.062;2023-12-29T11:37:18;100141.28;;;10.77;83.81
17785;BME280;9016;53.582;10.062;2023-12-29T11:39:51;100139.69;;;10.74;84.32
17785;BME280;9016;53.582;10.062;2023-12-29T11:42:27;100148.19;;;10.79;83.70
17785;BME280;9016;53.582;10.062;2023-12-29T11:44:57;100129.88;;;10.75;84.23
17785;BME280;9016;53.582;10.062;2023-12-29T11:47:34;100134.13;;;10.90;82.84
17785;BME280;9016;53.582;10.062;2023-12-29T11:50:04;100124.97;;;10.81;83.30
17785;BME280;9016;53.582;10.062;2023-12-29T11:52:33;100124.63;;;10.98;83.65
17785;BME280;9016;53.582;10.062;2023-12-29T11:55:08;100113.41;;;11.06;82.05
17785;BME280;9016;53.582;10.062;2023-12-29T11:57:38;100123.91;;;10.84;82.11
17785;BME280;9016;53.582;10.062;2023-12-29T12:00:08;100118.03;;;10.91;82.32
17785;BME280;9016;53.582;10.062;2023-12-29T12:02:37;100116.19;;;11.05;82.33
17785;BME280;9016;53.582;10.062;2023-12-29T12:05:06;100125.00;;;11.18;82.37
17785;BME280;9016;53.582;10.062;2023-12-29T12:07:57;100115.72;;;11.11;81.05
17785;BME280;9016;53.582;10.062;2023-12-29T12:10:30;100119.38;;;11.10;81.19
17785;BME280;9016;53.582;10.062;2023-12-29T12:13:01;100123.94;;;11.08;81.82
17785;BME280;9016;53.582;10.062;2023-12-29T12:15:33;100112.81;;;10.90;81.54
17785;BME280;9016;53.582;10.062;2023-12-29T12:18:03;100109.59;;;10.85;81.58
17785;BME280;9016;53.582;10.062;2023-12-29T12:20:34;100104.91;;;11.01;81.67
17785;BME280;9016;53.582;10.062;2023-12-29T12:23:11;100101.31;;;11.13;80.89
17785;BME280;9016;53.582;10.062;2023-12-29T12:25:41;100101.28;;;11.26;79.02
17785;BME280;9016;53.582;10.062;2023-12-29T12:28:14;100092.03;;;11.19;79.74
17785;BME280;9016;53.582;10.062;2023-12-29T12:30:42;100104.06;;;11.24;79.08
17785;BME280;9016;53.582;10.062;2023-12-29T12:33:12;100102.81;;;11.17;78.88
17785;BME280;9016;53.582;10.062;2023-12-29T12:35:41;100093.84;;;11.18;79.38
17785;BME280;9016;53.582;10.062;2023-12-29T12:38:12;100090.78;;;11.12;79.01
17785;BME280;9016;53.582;10.062;2023-12-29T12:40:40;100099.41;;;11.15;79.20
17785;BME280;9016;53.582;10.062;2023-12-29T12:43:15;100093.75;;;11.07;79.19
17785;BME280;9016;53.582;10.062;2023-12-29T12:45:48;100093.69;;;10.96;79.55
17785;BME280;9016;53.582;10.062;2023-12-29T12:48:20;100090.97;;;11.09;79.88
17785;BME280;9016;53.582;10.062;2023-12-29T12:50:50;100077.44;;;11.12;79.37
17785;BME280;9016;53.582;10.062;2023-12-29T12:53:18;100077.44;;;11.12;79.14
17785;BME280;9016;53.582;10.062;2023-12-29T12:55:48;100069.03;;;11.05;79.94
17785;BME280;9016;53.582;10.062;2023-12-29T12:58:19;100080.13;;;11.12;79.73
17785;BME280;9016;53.582;10.062;2023-12-29T13:00:48;100088.06;;;11.24;79.48
17785;BME280;9016;53.582;10.062;2023-12-29T13:03:20;100074.34;;;11.41;79.20